createdAt,value
2022-08-21T00:00:07.394Z,30.58
2022-08-21T00:02:46.013Z,30.54
2022-08-21T00:05:13.166Z,30.52
2022-08-21T00:07:40.215Z,30.52
2022-08-21T00:10:07.579Z,30.50
2022-08-21T00:12:34.681Z,30.50
2022-08-21T00:15:01.768Z,30.49
2022-08-21T00:17:28.968Z,30.49
2022-08-21T00:19:55.958Z,30.45
2022-08-21T00:22:22.870Z,30.48
2022-08-21T00:24:49.827Z,30.43
2022-08-21T00:27:16.848Z,30.40
2022-08-21T00:29:43.967Z,30.36
2022-08-21T00:32:10.985Z,30.31
2022-08-21T00:34:38.074Z,30.30
2022-08-21T00:37:05.595Z,30.31
2022-08-21T00:39:32.600Z,30.27
2022-08-21T00:41:59.544Z,30.30
2022-08-21T00:44:26.656Z,30.25
2022-08-21T00:46:53.900Z,30.27
2022-08-21T00:49:21.464Z,30.24
2022-08-21T00:51:55.054Z,30.25
2022-08-21T00:54:23.678Z,30.20
2022-08-21T00:56:54.233Z,30.24
2022-08-21T00:59:23.011Z,30.19
2022-08-21T01:01:51.274Z,30.18
2022-08-21T01:04:18.739Z,30.10
2022-08-21T01:06:45.783Z,30.09
2022-08-21T01:09:13.613Z,30.06
2022-08-21T01:11:41.213Z,30.04
2022-08-21T01:14:08.287Z,30.05
2022-08-21T01:16:35.591Z,30.00
2022-08-21T01:19:02.584Z,30.02
2022-08-21T01:21:29.594Z,30.02
2022-08-21T01:23:57.366Z,29.99
2022-08-21T01:26:34.138Z,30.00
2022-08-21T01:29:20.894Z,30.01
2022-08-21T01:31:47.893Z,30.00
2022-08-21T01:34:17.914Z,30.01
2022-08-21T01:36:46.081Z,30.01
2022-08-21T01:39:13.542Z,30.00
2022-08-21T01:41:40.635Z,29.94
2022-08-21T01:44:07.823Z,29.97
2022-08-21T01:46:35.496Z,29.92
2022-08-21T01:49:02.455Z,29.89
2022-08-21T01:51:29.644Z,29.89
2022-08-21T01:53:56.486Z,29.88
2022-08-21T01:56:23.778Z,29.87
2022-08-21T01:58:51.513Z,29.88
2022-08-21T02:01:18.731Z,29.87
2022-08-21T02:03:46.104Z,29.83
2022-08-21T02:06:16.706Z,29.80
2022-08-21T02:08:43.576Z,29.84
2022-08-21T02:11:12.682Z,29.80
2022-08-21T02:13:39.718Z,29.79
2022-08-21T02:16:08.312Z,29.80
2022-08-21T02:18:36.136Z,29.82
2022-08-21T02:21:03.847Z,29.74
2022-08-21T02:23:31.276Z,29.73
2022-08-21T02:25:59.163Z,29.74
2022-08-21T02:28:26.407Z,29.77
2022-08-21T02:30:55.588Z,29.72
2022-08-21T02:33:23.064Z,29.70
2022-08-21T02:35:51.179Z,29.71
2022-08-21T02:38:21.368Z,29.69
2022-08-21T02:40:50.959Z,29.70
2022-08-21T02:43:19.777Z,29.69
2022-08-21T02:45:49.211Z,29.66
2022-08-21T02:48:18.047Z,29.69
2022-08-21T02:50:46.889Z,29.66
2022-08-21T02:53:17.690Z,29.69
2022-08-21T02:55:49.225Z,29.66
2022-08-21T02:58:17.463Z,29.68
2022-08-21T03:00:45.349Z,29.62
2022-08-21T03:03:13.651Z,29.68
2022-08-21T03:05:40.793Z,29.63
2022-08-21T03:08:11.728Z,29.64
2022-08-21T03:10:44.289Z,29.59
2022-08-21T03:13:12.158Z,29.62
2022-08-21T03:15:39.698Z,29.59
2022-08-21T03:18:08.054Z,29.55
2022-08-21T03:20:36.289Z,29.52
2022-08-21T03:23:04.555Z,29.48
2022-08-21T03:25:41.113Z,29.47
2022-08-21T03:28:12.988Z,29.45
2022-08-21T03:30:48.137Z,29.41
2022-08-21T03:33:16.121Z,29.36
2022-08-21T03:35:45.761Z,29.37
2022-08-21T03:38:14.307Z,29.37
2022-08-21T03:40:42.938Z,29.34
2022-08-21T03:43:10.758Z,29.33
2022-08-21T03:45:38.871Z,29.30
2022-08-21T03:48:06.776Z,29.27
2022-08-21T03:50:40.955Z,29.29
2022-08-21T03:53:17.099Z,29.25
2022-08-21T03:55:48.045Z,29.23
2022-08-21T03:58:17.376Z,29.13
2022-08-21T04:00:49.595Z,29.08
2022-08-21T04:03:17.400Z,29.04
2022-08-21T04:05:46.492Z,29.06
2022-08-21T04:08:14.663Z,29.04
2022-08-21T04:10:46.557Z,29.08
2022-08-21T04:13:13.813Z,29.07
2022-08-21T04:15:42.109Z,29.05
2022-08-21T04:18:09.667Z,29.08
2022-08-21T04:20:36.757Z,29.09
2022-08-21T04:23:04.607Z,29.08
2022-08-21T04:25:32.137Z,29.08
2022-08-21T04:27:59.549Z,29.10
2022-08-21T04:30:28.301Z,29.11
2022-08-21T04:32:57.283Z,29.13
2022-08-21T04:35:25.688Z,29.14
2022-08-21T04:37:52.941Z,29.16
2022-08-21T04:40:20.959Z,29.15
2022-08-21T04:42:50.872Z,29.13
2022-08-21T04:45:37.119Z,29.16
2022-08-21T04:48:06.412Z,29.15
2022-08-21T04:50:40.284Z,29.15
2022-08-21T04:53:08.837Z,29.14
2022-08-21T04:55:36.072Z,29.12
2022-08-21T04:58:03.181Z,29.15
2022-08-21T05:00:30.604Z,29.11
2022-08-21T05:03:00.526Z,29.08
2022-08-21T05:05:30.242Z,29.04
2022-08-21T05:07:58.821Z,28.97
2022-08-21T05:10:27.045Z,28.99
2022-08-21T05:12:54.744Z,29.02
2022-08-21T05:15:22.169Z,29.02
2022-08-21T05:17:53.751Z,28.98
2022-08-21T05:20:28.180Z,28.97
2022-08-21T05:22:55.202Z,28.95
2022-08-21T05:25:23.716Z,28.92
2022-08-21T05:27:52.114Z,28.90
2022-08-21T05:30:22.881Z,28.87
2022-08-21T05:32:49.908Z,28.83
2022-08-21T05:35:16.857Z,28.81
2022-08-21T05:37:43.881Z,28.79
2022-08-21T05:40:21.423Z,28.74
2022-08-21T05:42:55.385Z,28.74
2022-08-21T05:45:41.342Z,28.73
2022-08-21T05:48:10.947Z,28.70
2022-08-21T05:50:39.410Z,28.67
2022-08-21T05:53:07.867Z,28.67
2022-08-21T05:55:37.308Z,28.61
2022-08-21T05:58:07.770Z,28.63
2022-08-21T06:00:37.652Z,28.64
2022-08-21T06:03:04.905Z,28.64
2022-08-21T06:05:36.615Z,28.68
2022-08-21T06:08:05.321Z,28.73
2022-08-21T06:10:34.930Z,28.74
2022-08-21T06:13:01.880Z,28.77
2022-08-21T06:15:28.948Z,28.84
2022-08-21T06:17:56.120Z,28.89
2022-08-21T06:20:23.293Z,28.91
2022-08-21T06:22:50.478Z,28.90
2022-08-21T06:25:17.398Z,28.93
2022-08-21T06:27:44.468Z,28.98
2022-08-21T06:30:11.776Z,28.95
2022-08-21T06:32:39.120Z,29.02
2022-08-21T06:35:06.476Z,28.99
2022-08-21T06:37:34.198Z,29.07
2022-08-21T06:40:01.389Z,29.08
2022-08-21T06:42:31.330Z,29.06
2022-08-21T06:44:58.752Z,29.12
2022-08-21T06:47:25.814Z,29.12
2022-08-21T06:49:53.580Z,29.13
2022-08-21T06:52:20.561Z,29.16
2022-08-21T06:54:47.536Z,29.02
2022-08-21T06:57:14.704Z,29.17
2022-08-21T06:59:41.731Z,29.22
2022-08-21T07:02:09.122Z,29.22
2022-08-21T07:04:36.477Z,29.22
2022-08-21T07:07:04.029Z,29.30
2022-08-21T07:09:31.266Z,29.40
2022-08-21T07:11:58.748Z,29.35
2022-08-21T07:14:26.104Z,29.45
2022-08-21T07:16:53.250Z,29.52
2022-08-21T07:19:20.685Z,29.46
2022-08-21T07:21:47.971Z,29.62
2022-08-21T07:24:15.486Z,29.57
2022-08-21T07:26:42.459Z,29.63
2022-08-21T07:29:09.545Z,29.74
2022-08-21T07:31:36.425Z,29.78
2022-08-21T07:34:03.674Z,29.80
2022-08-21T07:36:30.789Z,29.80
2022-08-21T07:39:00.413Z,29.91
2022-08-21T07:41:29.882Z,30.01
2022-08-21T07:43:58.525Z,30.15
2022-08-21T07:46:26.058Z,30.19
2022-08-21T07:48:53.647Z,30.30
2022-08-21T07:51:23.257Z,30.42
2022-08-21T07:53:55.535Z,30.52
2022-08-21T07:56:22.699Z,30.53
2022-08-21T07:58:52.788Z,30.61
2022-08-21T08:01:20.210Z,30.61
2022-08-21T08:03:47.517Z,30.79
2022-08-21T08:06:16.528Z,30.81
2022-08-21T08:08:44.163Z,31.02
2022-08-21T08:11:12.019Z,31.03
2022-08-21T08:13:40.262Z,31.27
2022-08-21T08:16:07.675Z,31.23
2022-08-21T08:18:34.628Z,31.42
2022-08-21T08:21:01.863Z,31.54
2022-08-21T08:23:29.082Z,31.46
2022-08-21T08:25:56.086Z,31.57
2022-08-21T08:28:23.307Z,31.85
2022-08-21T08:30:50.903Z,31.85
2022-08-21T08:33:18.169Z,31.70
2022-08-21T08:35:46.685Z,31.77
2022-08-21T08:38:16.873Z,32.00
2022-08-21T08:40:52.574Z,31.93
2022-08-21T08:43:20.051Z,31.95
2022-08-21T08:45:49.697Z,31.84
2022-08-21T08:48:21.136Z,32.10
2022-08-21T08:50:50.921Z,32.12
2022-08-21T08:53:41.165Z,32.30
2022-08-21T08:56:08.663Z,32.57
2022-08-21T08:58:38.920Z,32.58
2022-08-21T09:01:11.358Z,32.46
2022-08-21T09:03:40.280Z,32.24
2022-08-21T09:06:25.849Z,32.69
2022-08-21T09:09:16.059Z,33.04
2022-08-21T09:11:47.214Z,33.12
2022-08-21T09:14:34.796Z,33.56
2022-08-21T09:17:20.768Z,33.15
2022-08-21T09:20:11.498Z,33.50
2022-08-21T09:22:57.490Z,33.68
2022-08-21T09:25:26.851Z,33.93
2022-08-21T09:27:54.213Z,33.86
2022-08-21T09:30:25.507Z,34.65
2022-08-21T09:32:52.512Z,34.18
2022-08-21T09:35:21.493Z,34.19
2022-08-21T09:38:07.492Z,34.06
2022-08-21T09:40:34.447Z,34.41
2022-08-21T09:43:03.378Z,34.74
2022-08-21T09:45:31.136Z,34.66
2022-08-21T09:48:11.093Z,35.16
2022-08-21T09:50:38.097Z,35.62
2022-08-21T09:53:05.098Z,36.01
2022-08-21T09:55:52.735Z,35.98
2022-08-21T09:58:21.412Z,35.97
2022-08-21T10:00:58.102Z,36.00
2022-08-21T10:03:26.104Z,35.51
2022-08-21T10:05:53.117Z,34.92
2022-08-21T10:08:21.454Z,34.72
2022-08-21T10:10:52.025Z,34.33
2022-08-21T10:13:46.764Z,35.11
2022-08-21T10:16:32.779Z,34.18
2022-08-21T10:19:02.674Z,33.57
2022-08-21T10:22:02.305Z,33.55
2022-08-21T10:24:32.297Z,33.39
2022-08-21T10:26:59.221Z,33.72
2022-08-21T10:29:45.349Z,33.88
2022-08-21T10:32:21.279Z,33.32
2022-08-21T10:35:11.631Z,32.97
2022-08-21T10:37:48.837Z,33.02
2022-08-21T10:40:19.099Z,33.49
2022-08-21T10:42:56.723Z,33.00
2022-08-21T10:45:32.400Z,32.91
2022-08-21T10:48:06.590Z,32.58
2022-08-21T10:50:41.051Z,32.62
2022-08-21T10:53:28.339Z,32.68
2022-08-21T10:56:03.105Z,32.13
2022-08-21T10:58:31.852Z,32.43
2022-08-21T11:01:19.122Z,32.74
2022-08-21T11:03:47.904Z,32.84
2022-08-21T11:06:23.402Z,32.32
2022-08-21T11:08:58.000Z,32.99
2022-08-21T11:11:35.268Z,33.19
2022-08-21T11:14:06.595Z,32.91
2022-08-21T11:16:33.512Z,33.32
2022-08-21T11:19:20.890Z,33.93
2022-08-21T11:21:54.166Z,33.91
2022-08-21T11:24:38.212Z,34.29
2022-08-21T11:27:19.549Z,34.14
2022-08-21T11:29:50.132Z,33.33
2022-08-21T11:32:20.300Z,33.73
2022-08-21T11:34:58.711Z,33.54
2022-08-21T11:37:42.270Z,34.11
2022-08-21T11:40:10.198Z,33.10
2022-08-21T11:42:40.743Z,32.73
2022-08-21T11:45:33.963Z,33.35
2022-08-21T11:48:20.986Z,33.77
2022-08-21T11:50:49.326Z,33.39
2022-08-21T11:53:21.200Z,33.39
2022-08-21T11:55:48.132Z,33.61
2022-08-21T11:58:22.058Z,33.71
2022-08-21T12:00:57.618Z,33.69
2022-08-21T12:03:24.515Z,33.84
2022-08-21T12:06:09.410Z,33.32
2022-08-21T12:08:39.494Z,33.30
2022-08-21T12:11:15.811Z,33.08
2022-08-21T12:13:54.635Z,32.61
2022-08-21T12:16:30.783Z,32.72
2022-08-21T12:19:08.763Z,33.32
2022-08-21T12:21:48.517Z,33.53
2022-08-21T12:24:15.565Z,33.64
2022-08-21T12:26:48.576Z,33.27
2022-08-21T12:29:19.295Z,33.92
2022-08-21T12:31:54.814Z,34.01
2022-08-21T12:34:24.229Z,34.17
2022-08-21T12:36:55.352Z,33.82
2022-08-21T12:39:25.199Z,33.66
2022-08-21T12:42:01.811Z,33.74
2022-08-21T12:44:38.943Z,32.83
2022-08-21T12:47:24.592Z,33.80
2022-08-21T12:49:58.642Z,34.48
2022-08-21T12:52:30.414Z,35.04
2022-08-21T12:54:57.487Z,34.73
2022-08-21T12:57:28.627Z,34.66
2022-08-21T12:59:57.504Z,34.06
2022-08-21T13:02:36.785Z,34.28
2022-08-21T13:05:06.153Z,33.92
2022-08-21T13:07:37.070Z,33.89
2022-08-21T13:10:04.203Z,33.56
2022-08-21T13:12:34.427Z,34.02
2022-08-21T13:15:08.376Z,34.09
2022-08-21T13:17:38.961Z,34.04
2022-08-21T13:20:09.046Z,33.82
2022-08-21T13:22:42.554Z,34.34
2022-08-21T13:25:18.111Z,34.33
2022-08-21T13:27:59.581Z,34.18
2022-08-21T13:30:26.552Z,34.12
2022-08-21T13:32:59.489Z,34.22
2022-08-21T13:35:32.995Z,34.16
2022-08-21T13:38:00.450Z,34.44
2022-08-21T13:40:34.918Z,34.24
2022-08-21T13:43:02.361Z,34.28
2022-08-21T13:45:32.862Z,34.35
2022-08-21T13:48:06.035Z,33.59
2022-08-21T13:50:36.294Z,33.87
2022-08-21T13:53:04.947Z,33.67
2022-08-21T13:55:43.344Z,33.36
2022-08-21T13:58:11.445Z,33.42
2022-08-21T14:00:48.403Z,33.34
2022-08-21T14:03:27.224Z,33.39
2022-08-21T14:05:54.267Z,32.91
2022-08-21T14:08:30.422Z,32.64
2022-08-21T14:10:58.560Z,32.98
2022-08-21T14:13:53.515Z,32.27
2022-08-21T14:16:34.510Z,32.21
2022-08-21T14:19:06.504Z,32.30
2022-08-21T14:21:45.216Z,32.66
2022-08-21T14:24:41.406Z,32.39
2022-08-21T14:27:16.593Z,32.88
2022-08-21T14:29:46.910Z,32.82
2022-08-21T14:32:26.018Z,32.34
2022-08-21T14:34:55.116Z,32.76
2022-08-21T14:37:30.395Z,32.43
2022-08-21T14:40:16.121Z,32.75
2022-08-21T14:42:47.035Z,32.21
2022-08-21T14:45:24.698Z,32.60
2022-08-21T14:47:56.764Z,33.20
2022-08-21T14:50:24.486Z,33.21
2022-08-21T14:52:59.185Z,33.09
2022-08-21T14:55:30.236Z,32.50
2022-08-21T14:58:03.842Z,32.38
2022-08-21T15:00:36.245Z,31.88
2022-08-21T15:03:08.627Z,32.79
2022-08-21T15:05:36.209Z,32.24
2022-08-21T15:08:06.573Z,32.22
2022-08-21T15:10:48.117Z,32.40
2022-08-21T15:13:26.851Z,32.04
2022-08-21T15:15:54.636Z,32.16
2022-08-21T15:18:22.151Z,31.87
2022-08-21T15:20:52.404Z,31.72
2022-08-21T15:23:19.935Z,31.40
2022-08-21T15:25:48.291Z,31.15
2022-08-21T15:28:17.902Z,31.16
2022-08-21T15:30:46.777Z,31.40
2022-08-21T15:33:14.660Z,31.06
2022-08-21T15:35:41.871Z,31.09
2022-08-21T15:38:11.379Z,31.26
2022-08-21T15:40:39.137Z,31.27
2022-08-21T15:43:06.806Z,31.44
2022-08-21T15:45:35.047Z,31.35
2022-08-21T15:48:02.381Z,31.43
2022-08-21T15:50:30.313Z,31.34
2022-08-21T15:52:57.458Z,31.17
2022-08-21T15:55:24.754Z,31.46
2022-08-21T15:57:57.414Z,31.36
2022-08-21T16:00:25.866Z,31.45
2022-08-21T16:02:58.579Z,31.52
2022-08-21T16:05:26.067Z,31.69
2022-08-21T16:07:53.124Z,31.64
2022-08-21T16:10:29.830Z,31.27
2022-08-21T16:13:00.227Z,30.98
2022-08-21T16:15:27.910Z,31.26
2022-08-21T16:17:55.144Z,31.42
2022-08-21T16:20:25.365Z,31.07
2022-08-21T16:22:53.205Z,30.72
2022-08-21T16:25:20.131Z,29.84
2022-08-21T16:27:49.152Z,29.65
2022-08-21T16:30:16.805Z,28.54
2022-08-21T16:32:44.311Z,27.53
2022-08-21T16:35:13.776Z,27.01
2022-08-21T16:37:42.899Z,26.65
2022-08-21T16:40:10.820Z,26.52
2022-08-21T16:42:38.760Z,26.64
2022-08-21T16:45:06.886Z,27.10
2022-08-21T16:47:37.100Z,27.38
2022-08-21T16:50:07.745Z,27.55
2022-08-21T16:52:35.768Z,27.64
2022-08-21T16:55:03.146Z,27.73
2022-08-21T16:57:30.182Z,27.63
2022-08-21T16:59:57.268Z,27.74
2022-08-21T17:02:30.080Z,27.89
2022-08-21T17:04:57.236Z,28.06
2022-08-21T17:07:24.146Z,28.30
2022-08-21T17:09:51.518Z,28.41
2022-08-21T17:12:20.236Z,28.51
2022-08-21T17:14:50.441Z,28.42
2022-08-21T17:17:17.786Z,28.51
2022-08-21T17:19:45.392Z,28.53
2022-08-21T17:22:14.840Z,28.51
2022-08-21T17:24:42.106Z,28.55
2022-08-21T17:27:10.945Z,28.53
2022-08-21T17:29:38.795Z,28.53
2022-08-21T17:32:09.934Z,28.46
2022-08-21T17:34:37.902Z,28.64
2022-08-21T17:37:05.178Z,28.72
2022-08-21T17:39:32.109Z,28.71
2022-08-21T17:42:01.929Z,28.63
2022-08-21T17:44:28.966Z,28.76
2022-08-21T17:46:55.819Z,28.82
2022-08-21T17:49:22.953Z,28.84
2022-08-21T17:51:50.019Z,28.89
2022-08-21T17:54:19.736Z,28.85
2022-08-21T17:56:46.904Z,28.73
2022-08-21T17:59:14.775Z,28.67
2022-08-21T18:01:43.141Z,28.78
2022-08-21T18:04:11.163Z,28.90
2022-08-21T18:06:38.913Z,28.92
2022-08-21T18:09:06.088Z,28.99
2022-08-21T18:11:33.658Z,28.95
2022-08-21T18:14:07.164Z,28.88
2022-08-21T18:16:35.693Z,28.91
2022-08-21T18:19:04.216Z,28.93
2022-08-21T18:21:31.533Z,28.78
2022-08-21T18:23:59.085Z,28.84
2022-08-21T18:26:38.131Z,28.84
2022-08-21T18:29:06.540Z,28.88
2022-08-21T18:31:35.223Z,28.80
2022-08-21T18:34:06.078Z,28.79
2022-08-21T18:36:32.987Z,28.64
2022-08-21T18:39:19.345Z,28.50
2022-08-21T18:41:47.691Z,28.47
2022-08-21T18:44:15.834Z,28.28
2022-08-21T18:46:48.704Z,28.36
2022-08-21T18:49:15.766Z,28.05
2022-08-21T18:51:45.383Z,28.18
2022-08-21T18:54:13.167Z,28.15
2022-08-21T18:56:41.143Z,28.10
2022-08-21T18:59:10.354Z,28.01
2022-08-21T19:01:38.270Z,28.05
2022-08-21T19:04:07.498Z,27.90
2022-08-21T19:06:36.648Z,27.96
2022-08-21T19:09:09.899Z,28.16
2022-08-21T19:11:40.977Z,28.04
2022-08-21T19:14:15.673Z,27.96
2022-08-21T19:19:30.693Z,28.15
2022-08-21T19:21:57.891Z,28.22
2022-08-21T19:24:26.362Z,28.15
2022-08-21T19:26:53.569Z,28.21
2022-08-21T19:29:34.688Z,28.23
2022-08-21T19:32:04.246Z,28.18
2022-08-21T19:34:31.305Z,28.23
2022-08-21T19:36:59.460Z,28.31
2022-08-21T19:39:26.940Z,28.29
2022-08-21T19:41:56.627Z,28.33
2022-08-21T19:44:25.357Z,28.30
2022-08-21T19:46:52.985Z,28.31
2022-08-21T19:49:22.265Z,28.35
2022-08-21T19:54:36.187Z,28.43
2022-08-21T19:57:08.078Z,28.43
2022-08-21T19:59:39.449Z,28.33
2022-08-21T20:02:06.953Z,28.44
2022-08-21T20:04:33.947Z,28.44
2022-08-21T20:07:00.805Z,28.40
2022-08-21T20:09:27.930Z,28.45
2022-08-21T20:11:56.628Z,28.50
2022-08-21T20:14:25.465Z,28.49
2022-08-21T20:16:53.054Z,28.48
2022-08-21T20:19:22.166Z,28.47
2022-08-21T20:21:49.410Z,28.53
2022-08-21T20:24:16.718Z,28.59
2022-08-21T20:29:38.973Z,28.68
2022-08-21T20:32:12.329Z,28.60
2022-08-21T20:34:39.917Z,28.65
2022-08-21T20:37:07.062Z,28.65
2022-08-21T20:39:36.362Z,28.72
2022-08-21T20:42:05.066Z,28.68
2022-08-21T20:44:34.626Z,28.69
2022-08-21T20:47:04.802Z,28.73
2022-08-21T20:49:43.475Z,28.73
2022-08-21T20:52:10.865Z,28.73
2022-08-21T20:54:46.569Z,28.77
2022-08-21T20:57:17.648Z,28.71
2022-08-21T20:59:50.900Z,28.67
2022-08-21T21:02:27.141Z,28.68
2022-08-21T21:05:16.586Z,28.69
2022-08-21T21:08:00.966Z,28.76
2022-08-21T21:13:21.032Z,28.70
2022-08-21T21:15:52.262Z,28.70
2022-08-21T21:18:32.512Z,28.72
2022-08-21T21:21:10.765Z,28.67
2022-08-21T21:23:40.997Z,28.68
2022-08-21T21:26:15.210Z,28.63
2022-08-21T21:29:01.851Z,28.60
2022-08-21T21:31:30.516Z,28.57
2022-08-21T21:33:59.875Z,28.54
2022-08-21T21:36:51.532Z,28.60
2022-08-21T21:39:27.153Z,28.60
2022-08-21T21:42:08.443Z,28.60
2022-08-21T21:44:58.179Z,28.63
2022-08-21T21:47:48.486Z,28.56
2022-08-21T21:50:44.140Z,28.57
2022-08-21T21:53:27.329Z,28.60
2022-08-21T21:56:02.626Z,28.55
2022-08-21T21:58:36.115Z,28.59
2022-08-21T22:01:08.642Z,28.59
2022-08-21T22:03:59.893Z,28.58
2022-08-21T22:06:41.769Z,28.54
2022-08-21T22:09:16.021Z,28.56
2022-08-21T22:11:44.676Z,28.54
2022-08-21T22:14:24.371Z,28.59
2022-08-21T22:16:52.976Z,28.56
2022-08-21T22:19:30.338Z,28.54
2022-08-21T22:22:25.648Z,28.52
2022-08-21T22:24:54.088Z,28.53
2022-08-21T22:27:23.471Z,28.49
2022-08-21T22:29:54.956Z,28.49
2022-08-21T22:32:25.090Z,28.50
2022-08-21T22:35:05.763Z,28.50
2022-08-21T22:37:38.125Z,28.43
2022-08-21T22:40:05.863Z,28.49
2022-08-21T22:42:33.514Z,28.47
2022-08-21T22:45:02.194Z,28.47
2022-08-21T22:47:31.784Z,28.47
2022-08-21T22:50:04.413Z,28.48
2022-08-21T22:52:36.666Z,28.42
2022-08-21T22:55:30.302Z,28.38
2022-08-21T22:58:03.292Z,28.36
2022-08-21T23:00:42.800Z,28.33
2022-08-21T23:03:17.596Z,28.29
2022-08-21T23:05:45.729Z,28.34
2022-08-21T23:08:24.166Z,28.31
2022-08-21T23:10:57.302Z,28.32
2022-08-21T23:13:26.668Z,28.26
2022-08-21T23:16:03.978Z,28.30
2022-08-21T23:18:44.261Z,28.29
2022-08-21T23:21:28.803Z,28.30
2022-08-21T23:24:02.396Z,28.26
2022-08-21T23:26:40.731Z,28.26
2022-08-21T23:29:24.818Z,28.21
2022-08-21T23:32:13.654Z,28.24
2022-08-21T23:34:55.696Z,28.21
2022-08-21T23:37:51.735Z,28.21
2022-08-21T23:40:19.282Z,28.21
2022-08-21T23:42:55.487Z,28.22
2022-08-21T23:45:34.245Z,28.21
2022-08-21T23:48:01.165Z,28.17
2022-08-21T23:50:44.018Z,28.21
2022-08-21T23:53:16.866Z,28.24
2022-08-21T23:55:47.801Z,28.24
2022-08-21T23:58:39.431Z,28.22
